Time;durP1;ratioP1;P1;durP2;ratioP2;P2;SDS_P1;SDS_P2;PMS_P1;PMS_P2;Temp;Humidity;BMP_temperature;BMP_pressure;BME280_temperature;BME280_humidity;BME280_pressure;Samples;Min_cycle;Max_cycle;Signal;HPM_P1;HPM_P2
2024/03/08 00:00:22;;;;;;;43.53;29.20;;;;;;;1.35;100.00;101631.16;5044337;28;20028;-81
2024/03/08 00:02:50;;;;;;;42.80;28.88;;;;;;;1.31;100.00;101626.59;5041889;28;20033;-72
2024/03/08 00:05:16;;;;;;;44.30;29.13;;;;;;;1.31;100.00;101616.19;5043691;28;20472;-72
2024/03/08 00:07:42;;;;;;;44.70;28.83;;;;;;;1.31;100.00;101629.22;5042053;28;20041;-73
2024/03/08 00:10:11;;;;;;;43.85;28.70;;;;;;;1.30;100.00;101623.13;5041798;28;20036;-72
2024/03/08 00:12:44;;;;;;;42.33;28.95;;;;;;;1.28;100.00;101614.34;5043290;28;20038;-73
2024/03/08 00:15:17;;;;;;;44.08;29.27;;;;;;;1.31;100.00;101611.88;5042080;28;20464;-73
2024/03/08 00:17:43;;;;;;;41.03;27.98;;;;;;;1.26;100.00;101607.25;5044049;28;20045;-74
2024/03/08 00:20:09;;;;;;;43.53;28.73;;;;;;;1.25;100.00;101614.13;5042321;28;20032;-73
2024/03/08 00:22:38;;;;;;;43.90;29.65;;;;;;;1.23;100.00;101610.56;5043050;28;20380;-72
2024/03/08 00:25:05;;;;;;;42.17;28.90;;;;;;;1.18;100.00;101605.13;5042783;28;20102;-74
2024/03/08 00:27:31;;;;;;;42.22;28.42;;;;;;;1.23;100.00;101607.97;5042739;28;20041;-73
2024/03/08 00:29:57;;;;;;;43.05;28.55;;;;;;;1.26;100.00;101605.50;5043707;28;20032;-76
2024/03/08 00:32:25;;;;;;;41.30;27.83;;;;;;;1.24;100.00;101609.75;5041285;28;20029;-76
2024/03/08 00:34:57;;;;;;;42.38;28.70;;;;;;;1.21;100.00;101600.06;5044569;28;20108;-74
2024/03/08 00:37:22;;;;;;;42.03;28.23;;;;;;;1.18;100.00;101605.13;5037993;28;20029;-74
2024/03/08 00:39:49;;;;;;;41.80;28.27;;;;;;;1.13;100.00;101600.47;5044378;28;20039;-75
2024/03/08 00:42:15;;;;;;;42.72;28.55;;;;;;;1.15;100.00;101596.22;5041055;28;20040;-74
2024/03/08 00:44:41;;;;;;;42.15;28.33;;;;;;;1.13;100.00;101596.13;5042533;28;20068;-79
2024/03/08 00:47:06;;;;;;;41.30;28.02;;;;;;;1.13;100.00;101597.84;5042259;28;20056;-78
2024/03/08 00:49:32;;;;;;;40.80;27.98;;;;;;;1.07;100.00;101594.91;5042619;28;20033;-72
2024/03/08 00:51:57;;;;;;;42.88;28.92;;;;;;;1.01;100.00;101595.47;5043477;28;20033;-75
2024/03/08 00:54:23;;;;;;;41.47;28.27;;;;;;;0.98;100.00;101587.50;5041101;28;20037;-74
2024/03/08 00:56:48;;;;;;;40.70;29.13;;;;;;;0.92;100.00;101585.44;5044436;28;20052;-72
2024/03/08 00:59:14;;;;;;;41.63;28.17;;;;;;;0.89;100.00;101582.69;5040967;28;20026;-75
2024/03/08 01:01:43;;;;;;;40.40;28.10;;;;;;;0.86;100.00;101580.78;5042556;28;20468;-74
2024/03/08 01:04:09;;;;;;;41.83;28.85;;;;;;;0.81;100.00;101570.94;5042394;28;20543;-76
2024/03/08 01:06:35;;;;;;;41.17;28.30;;;;;;;0.75;100.00;101575.81;5042966;28;20061;-82
2024/03/08 01:09:00;;;;;;;40.30;28.20;;;;;;;0.73;100.00;101567.91;5042119;28;20068;-82
2024/03/08 01:11:27;;;;;;;41.40;29.05;;;;;;;0.69;100.00;101563.34;5043231;28;20427;-81
2024/03/08 01:13:53;;;;;;;42.55;28.67;;;;;;;0.66;100.00;101563.19;5048370;28;20026;-78
2024/03/08 01:16:20;;;;;;;41.85;28.95;;;;;;;0.65;100.00;101564.84;5047652;28;20565;-82
2024/03/08 01:18:46;;;;;;;41.85;28.90;;;;;;;0.62;100.00;101556.88;5045346;28;20053;-78
2024/03/08 01:21:12;;;;;;;42.10;29.23;;;;;;;0.58;100.00;101557.50;5047657;28;20029;-72
2024/03/08 01:23:37;;;;;;;40.67;28.10;;;;;;;0.53;100.00;101553.78;5046255;28;20047;-72
2024/03/08 01:26:03;;;;;;;41.42;28.83;;;;;;;0.55;100.00;101562.56;5046311;28;20071;-73
2024/03/08 01:28:30;;;;;;;41.40;29.63;;;;;;;0.49;100.00;101549.19;5046827;28;20111;-73
2024/03/08 01:30:55;;;;;;;39.25;27.92;;;;;;;0.46;100.00;101554.25;5045324;28;20036;-75
2024/03/08 01:33:25;;;;;;;40.55;28.40;;;;;;;0.45;100.00;101549.84;5048031;28;20033;-74
2024/03/08 01:35:54;;;;;;;39.83;28.10;;;;;;;0.43;100.00;101554.94;5040786;28;20087;-75
2024/03/08 01:38:22;;;;;;;41.78;29.17;;;;;;;0.39;100.00;101545.19;5040478;28;20530;-75
2024/03/08 01:40:49;;;;;;;41.75;28.80;;;;;;;0.37;100.00;101546.81;5039282;28;20037;-82
2024/03/08 01:43:21;;;;;;;40.50;28.92;;;;;;;0.35;100.00;101551.03;5047111;28;20098;-72
2024/03/08 01:45:48;;;;;;;40.97;29.45;;;;;;;0.35;100.00;101543.25;5044148;28;20119;-75
2024/03/08 01:48:17;;;;;;;39.78;28.38;;;;;;;0.33;100.00;101537.03;5029533;28;20505;-76
2024/03/08 01:50:42;;;;;;;42.00;29.55;;;;;;;0.31;100.00;101534.34;5043685;28;20140;-72
2024/03/08 01:53:10;;;;;;;41.00;29.60;;;;;;;0.30;100.00;101526.47;5046212;28;20112;-74
2024/03/08 01:55:36;;;;;;;41.15;29.52;;;;;;;0.28;100.00;101518.56;5045933;28;20108;-80
2024/03/08 01:58:04;;;;;;;41.22;29.25;;;;;;;0.24;100.00;101524.41;5045247;28;20037;-77
2024/03/08 02:00:30;;;;;;;39.58;28.60;;;;;;;0.20;100.00;101518.94;5046721;28;20108;-75
2024/03/08 02:02:57;;;;;;;40.53;29.13;;;;;;;0.13;100.00;101522.88;5044686;28;20391;-76
2024/03/08 02:05:23;;;;;;;39.28;28.25;;;;;;;0.08;100.00;101525.22;5047207;28;20048;-78
2024/03/08 02:07:49;;;;;;;39.88;29.35;;;;;;;0.03;100.00;101517.97;5043889;28;20100;-77
2024/03/08 02:10:14;;;;;;;40.55;29.42;;;;;;;-0.02;100.00;101516.00;5047110;28;20476;-76
2024/03/08 02:12:40;;;;;;;41.97;30.33;;;;;;;-0.05;100.00;101515.81;5044576;28;20108;-79
2024/03/08 02:15:08;;;;;;;40.78;29.48;;;;;;;-0.09;100.00;101518.16;5045777;28;20388;-79
2024/03/08 02:17:33;;;;;;;42.15;29.88;;;;;;;-0.14;100.00;101512.69;5043101;28;20049;-80
2024/03/08 02:20:01;;;;;;;40.88;29.75;;;;;;;-0.13;100.00;101511.88;5046213;28;20383;-73
2024/03/08 02:22:28;;;;;;;40.05;29.95;;;;;;;-0.16;100.00;101506.53;5043739;28;20037;-77
2024/03/08 02:24:55;;;;;;;42.50;30.25;;;;;;;-0.19;100.00;101506.31;5046855;28;20119;-76
2024/03/08 02:27:25;;;;;;;40.47;29.45;;;;;;;-0.16;100.00;101505.59;5043867;28;20521;-80
2024/03/08 02:29:55;;;;;;;40.80;29.45;;;;;;;-0.20;100.00;101488.94;5042782;28;20032;-81
2024/03/08 02:32:24;;;;;;;42.75;30.83;;;;;;;-0.21;100.00;101488.03;5043980;28;20087;-75
2024/03/08 02:34:50;;;;;;;41.83;30.08;;;;;;;-0.21;100.00;101482.84;5047503;28;20029;-80
2024/03/08 02:37:17;;;;;;;41.60;30.77;;;;;;;-0.13;100.00;101491.09;5042857;28;20033;-79
2024/03/08 02:39:42;;;;;;;41.58;30.08;;;;;;;-0.18;100.00;101482.13;5046534;28;20041;-80
2024/03/08 02:42:08;;;;;;;40.88;29.70;;;;;;;-0.19;100.00;101485.53;5043990;28;20038;-76
2024/03/08 02:44:33;;;;;;;42.45;30.63;;;;;;;-0.19;100.00;101482.91;5044987;28;20034;-78
2024/03/08 02:46:59;;;;;;;42.00;29.70;;;;;;;-0.19;100.00;101478.63;5046468;28;20037;-81
2024/03/08 02:49:26;;;;;;;41.28;30.42;;;;;;;-0.24;100.00;101474.88;5043816;28;20025;-80
2024/03/08 02:51:57;;;;;;;41.22;29.63;;;;;;;-0.28;100.00;101469.41;5046849;28;20102;-80
2024/03/08 02:54:22;;;;;;;41.63;30.92;;;;;;;-0.28;100.00;101469.41;5040278;28;20017;-77
2024/03/08 02:56:50;;;;;;;40.90;29.42;;;;;;;-0.29;100.00;101470.19;5039652;28;20059;-81
2024/03/08 02:59:17;;;;;;;40.65;30.35;;;;;;;-0.35;100.00;101468.13;5046839;28;20464;-80
2024/03/08 03:01:43;;;;;;;41.00;30.67;;;;;;;-0.34;100.00;101462.16;5043986;28;20361;-81
2024/03/08 03:04:09;;;;;;;41.13;29.90;;;;;;;-0.33;100.00;101444.88;5045740;28;20071;-78
2024/03/08 03:06:34;;;;;;;42.00;30.85;;;;;;;-0.29;100.00;101446.81;5045126;28;20052;-79
2024/03/08 03:09:00;;;;;;;41.38;30.48;;;;;;;-0.29;100.00;101449.41;5043966;28;20049;-73
2024/03/08 03:11:25;;;;;;;42.95;31.00;;;;;;;-0.29;100.00;101450.34;5046061;28;20036;-76
2024/03/08 03:13:50;;;;;;;42.97;31.33;;;;;;;-0.32;100.00;101449.25;5042745;28;20094;-78
2024/03/08 03:16:19;;;;;;;41.78;31.05;;;;;;;-0.38;100.00;101448.09;5046188;28;20033;-75
2024/03/08 03:18:45;;;;;;;41.10;31.02;;;;;;;-0.37;100.00;101442.06;5042907;28;20103;-79
2024/03/08 03:21:12;;;;;;;42.15;31.02;;;;;;;-0.40;100.00;101439.28;5045246;28;20468;-72
2024/03/08 03:23:39;;;;;;;41.92;31.35;;;;;;;-0.43;100.00;101433.91;5043741;28;20112;-71
2024/03/08 03:26:07;;;;;;;43.58;31.67;;;;;;;-0.43;100.00;101438.22;5044050;28;20365;-71
2024/03/08 03:28:33;;;;;;;40.85;30.65;;;;;;;-0.44;100.00;101433.84;5044395;28;20036;-78
2024/03/08 03:30:58;;;;;;;42.80;31.20;;;;;;;-0.41;100.00;101427.13;5043215;28;20487;-76
2024/03/08 03:33:24;;;;;;;42.90;32.28;;;;;;;-0.41;100.00;101432.31;5045025;28;20083;-77
2024/03/08 03:35:51;;;;;;;42.58;31.55;;;;;;;-0.41;100.00;101442.72;5041680;28;20032;-71
2024/03/08 03:38:17;;;;;;;40.55;31.60;;;;;;;-0.42;100.00;101429.66;5045590;28;20049;-73
2024/03/08 03:40:45;;;;;;;42.72;32.03;;;;;;;-0.43;100.00;101428.72;5042772;28;20120;-73
2024/03/08 03:43:10;;;;;;;42.08;31.35;;;;;;;-0.45;100.00;101424.25;5044161;28;20029;-72
2024/03/08 03:45:36;;;;;;;42.60;31.60;;;;;;;-0.45;100.00;101422.56;5043886;28;20506;-72
2024/03/08 03:48:06;;;;;;;43.80;32.33;;;;;;;-0.47;100.00;101426.75;5042963;28;20076;-72
2024/03/08 03:50:35;;;;;;;43.25;31.70;;;;;;;-0.47;100.00;101416.34;5043981;28;20060;-72
2024/03/08 03:53:02;;;;;;;42.97;31.73;;;;;;;-0.49;100.00;101409.31;5042978;28;20075;-76
2024/03/08 03:55:28;;;;;;;41.90;31.33;;;;;;;-0.51;100.00;101403.09;5044494;28;20033;-76
2024/03/08 03:57:54;;;;;;;42.45;31.90;;;;;;;-0.54;100.00;101403.81;5041659;28;20495;-72
2024/03/08 04:00:19;;;;;;;42.85;32.03;;;;;;;-0.53;100.00;101405.63;5045200;28;20090;-72
2024/03/08 04:02:45;;;;;;;42.35;31.92;;;;;;;-0.56;100.00;101401.13;5040802;28;20033;-72
2024/03/08 04:05:11;;;;;;;43.40;32.72;;;;;;;-0.56;100.00;101406.34;5043623;28;20033;-72
2024/03/08 04:07:37;;;;;;;42.50;32.17;;;;;;;-0.58;100.00;101409.66;5043145;28;20524;-82
2024/03/08 04:10:06;;;;;;;42.50;32.20;;;;;;;-0.61;100.00;101401.66;5042623;28;20026;-76
2024/03/08 04:12:32;;;;;;;41.30;31.63;;;;;;;-0.63;100.00;101403.28;5042196;28;20021;-72
2024/03/08 04:14:57;;;;;;;43.72;32.47;;;;;;;-0.65;100.00;101402.31;5041970;28;20414;-72
2024/03/08 04:17:26;;;;;;;43.05;31.65;;;;;;;-0.65;100.00;101402.31;5044464;28;20041;-72
2024/03/08 04:19:52;;;;;;;43.42;32.72;;;;;;;-0.66;100.00;101400.53;5037477;28;20038;-77
2024/03/08 04:22:17;;;;;;;42.83;31.95;;;;;;;-0.67;100.00;101397.03;5044753;28;20065;-72
2024/03/08 04:24:46;;;;;;;42.72;32.05;;;;;;;-0.65;100.00;101394.53;5041901;28;20041;-73
2024/03/08 04:27:13;;;;;;;43.00;32.47;;;;;;;-0.69;100.00;101396.03;5043780;28;20033;-73
2024/03/08 04:29:38;;;;;;;43.75;33.25;;;;;;;-0.69;100.00;101388.25;5045087;28;20049;-74
2024/03/08 04:32:04;;;;;;;43.42;32.80;;;;;;;-0.65;100.00;101384.16;5043658;28;20029;-73
2024/03/08 04:34:30;;;;;;;43.78;32.65;;;;;;;-0.62;100.00;101384.31;5042542;28;20048;-82
2024/03/08 04:36:59;;;;;;;43.22;32.65;;;;;;;-0.59;100.00;101389.69;5044692;28;20480;-73
2024/03/08 04:39:27;;;;;;;42.90;32.40;;;;;;;-0.59;100.00;101387.09;5041553;28;20059;-76
2024/03/08 04:41:54;;;;;;;41.72;32.15;;;;;;;-0.57;100.00;101382.88;5044782;28;20029;-80
2024/03/08 04:44:20;;;;;;;42.50;31.90;;;;;;;-0.57;100.00;101377.66;5041204;28;20041;-79
2024/03/08 04:46:46;;;;;;;44.72;32.67;;;;;;;-0.53;100.00;101377.94;5042074;28;20433;-79
2024/03/08 04:49:13;;;;;;;43.08;31.95;;;;;;;-0.52;100.00;101373.66;5042489;28;20036;-79
2024/03/08 04:51:38;;;;;;;43.00;32.10;;;;;;;-0.51;100.00;101375.44;5043476;28;20089;-84
2024/03/08 04:54:04;;;;;;;42.42;32.58;;;;;;;-0.53;100.00;101366.66;5042117;28;20423;-72
2024/03/08 04:56:30;;;;;;;43.75;32.63;;;;;;;-0.50;100.00;101374.63;5042011;28;20044;-72
2024/03/08 04:58:56;;;;;;;43.10;33.47;;;;;;;-0.53;100.00;101358.88;5041354;28;20034;-78
2024/03/08 05:01:21;;;;;;;43.10;32.33;;;;;;;-0.57;100.00;101367.28;5044215;28;20083;-73
2024/03/08 05:03:49;;;;;;;43.33;32.67;;;;;;;-0.60;100.00;101361.91;5040867;28;20033;-72
2024/03/08 05:06:16;;;;;;;44.05;32.83;;;;;;;-0.63;100.00;101357.44;5043696;28;20060;-72
2024/03/08 05:08:41;;;;;;;43.90;33.20;;;;;;;-0.63;100.00;101356.53;5041699;28;20033;-72
2024/03/08 05:11:07;;;;;;;45.25;33.20;;;;;;;-0.64;100.00;101354.75;5042239;28;20426;-72
2024/03/08 05:13:34;;;;;;;43.75;32.80;;;;;;;-0.58;100.00;101356.00;5041787;28;20058;-72
2024/03/08 05:15:59;;;;;;;45.25;33.92;;;;;;;-0.58;100.00;101357.72;5041264;28;20035;-72
2024/03/08 05:18:25;;;;;;;43.92;33.80;;;;;;;-0.58;100.00;101357.72;5043753;28;20053;-73
2024/03/08 05:20:51;;;;;;;45.33;34.20;;;;;;;-0.62;100.00;101347.97;5043045;28;20120;-72
2024/03/08 05:23:19;;;;;;;43.70;33.58;;;;;;;-0.65;100.00;101343.47;5040818;28;20032;-73
2024/03/08 05:25:46;;;;;;;43.90;33.58;;;;;;;-0.65;100.00;101347.78;5042975;28;20036;-73
2024/03/08 05:28:12;;;;;;;45.10;34.53;;;;;;;-0.68;100.00;101344.97;5041737;28;20025;-73
2024/03/08 05:30:38;;;;;;;46.00;34.35;;;;;;;-0.70;100.00;101342.28;5042148;28;20464;-75
2024/03/08 05:33:04;;;;;;;46.50;35.13;;;;;;;-0.76;100.00;101348.06;5042724;28;20380;-72
2024/03/08 05:35:29;;;;;;;45.72;34.40;;;;;;;-0.76;100.00;101350.66;5041241;28;20091;-72
2024/03/08 05:37:55;;;;;;;45.20;34.50;;;;;;;-0.79;100.00;101344.38;5043661;28;20087;-72
2024/03/08 05:40:20;;;;;;;45.10;33.92;;;;;;;-0.79;100.00;101345.25;5040328;28;20048;-76
2024/03/08 05:42:46;;;;;;;44.10;33.17;;;;;;;-0.80;100.00;101338.28;5043442;28;20033;-74
2024/03/08 05:45:11;;;;;;;44.88;34.67;;;;;;;-0.83;100.00;101335.53;5039980;28;20120;-80
2024/03/08 05:47:39;;;;;;;45.33;34.55;;;;;;;-0.80;100.00;101332.19;5041975;28;20036;-73
2024/03/08 05:50:07;;;;;;;45.90;35.35;;;;;;;-0.86;100.00;101337.91;5043568;28;20044;-70
2024/03/08 05:52:33;;;;;;;46.92;35.25;;;;;;;-0.88;100.00;101326.56;5041302;28;20044;-70
2024/03/08 05:54:58;;;;;;;46.00;34.38;;;;;;;-0.89;100.00;101329.94;5043069;28;20041;-72
2024/03/08 05:57:24;;;;;;;45.58;34.40;;;;;;;-0.89;100.00;101323.06;5041170;28;20032;-70
2024/03/08 05:59:49;;;;;;;47.45;35.50;;;;;;;-0.85;100.00;101325.84;5047279;28;20033;-72
2024/03/08 06:02:19;;;;;;;45.72;34.17;;;;;;;-0.84;100.00;101323.34;5044922;28;20026;-76
2024/03/08 06:04:46;;;;;;;47.45;35.13;;;;;;;-0.86;100.00;101316.25;5046416;28;20476;-75
2024/03/08 06:07:12;;;;;;;45.38;34.90;;;;;;;-0.89;100.00;101323.06;5044822;28;20091;-71
2024/03/08 06:09:38;;;;;;;46.80;35.08;;;;;;;-0.90;100.00;101323.00;5044402;28;20034;-70
2024/03/08 06:12:04;;;;;;;47.45;34.90;;;;;;;-0.89;100.00;101319.56;5045932;28;20036;-72
2024/03/08 06:14:30;;;;;;;45.97;34.97;;;;;;;-0.88;100.00;101316.16;5026505;28;20036;-70
2024/03/08 06:16:55;;;;;;;45.95;34.30;;;;;;;-0.84;100.00;101312.97;5046930;28;20025;-70
2024/03/08 06:19:20;;;;;;;46.10;34.70;;;;;;;-0.82;100.00;101305.25;5043518;28;20033;-70
2024/03/08 06:21:46;;;;;;;44.67;34.05;;;;;;;-0.82;100.00;101307.84;5046440;28;20025;-70
2024/03/08 06:24:12;;;;;;;46.45;35.10;;;;;;;-0.82;100.00;101303.53;5044564;28;20386;-74
2024/03/08 06:26:37;;;;;;;46.88;35.47;;;;;;;-0.79;100.00;101297.63;5044860;28;20037;-76
2024/03/08 06:29:06;;;;;;;46.45;34.85;;;;;;;-0.75;100.00;101299.59;5045573;28;20025;-72
2024/03/08 06:31:32;;;;;;;46.00;34.90;;;;;;;-0.70;100.00;101305.94;5044511;28;20029;-75
2024/03/08 06:33:57;;;;;;;45.95;34.28;;;;;;;-0.64;100.00;101300.22;5046432;28;20477;-72
2024/03/08 06:36:23;;;;;;;47.28;35.83;;;;;;;-0.65;100.00;101301.03;5043344;28;20026;-76
2024/03/08 06:38:49;;;;;;;46.63;33.80;;;;;;;-0.59;100.00;101294.47;5046499;28;20374;-74
2024/03/08 06:41:17;;;;;;;46.50;35.40;;;;;;;-0.59;100.00;101293.59;5043864;28;20464;-72
2024/03/08 06:43:43;;;;;;;46.05;34.50;;;;;;;-0.57;100.00;101289.34;5045341;28;20087;-73
2024/03/08 06:46:09;;;;;;;45.67;34.50;;;;;;;-0.50;100.00;101286.31;5044740;28;20021;-74
2024/03/08 06:48:37;;;;;;;45.72;34.15;;;;;;;-0.44;100.00;101301.34;5026526;28;20494;-72
2024/03/08 06:51:03;;;;;;;44.35;33.10;;;;;;;-0.43;100.00;101290.16;5045311;28;20078;-71
2024/03/08 06:53:28;;;;;;;44.28;34.00;;;;;;;-0.36;100.00;101295.75;5042311;28;20037;-80
2024/03/08 06:55:54;;;;;;;44.45;33.78;;;;;;;-0.36;100.00;101290.56;5046785;28;20033;-81
2024/03/08 06:58:19;;;;;;;44.40;33.25;;;;;;;-0.32;100.00;101298.53;5042014;28;20034;-81
2024/03/08 07:00:45;;;;;;;44.75;33.33;;;;;;;-0.29;100.00;101290.91;5044674;28;20440;-79
2024/03/08 07:03:12;;;;;;;45.80;33.78;;;;;;;-0.22;100.00;101296.53;5041718;28;20082;-70
2024/03/08 07:05:37;;;;;;;44.25;33.17;;;;;;;-0.17;100.00;101294.19;5043202;28;20025;-72
2024/03/08 07:08:03;;;;;;;45.72;33.50;;;;;;;-0.13;100.00;101287.44;5045663;28;20420;-76
2024/03/08 07:10:29;;;;;;;44.65;32.88;;;;;;;-0.04;100.00;101287.97;5043323;28;20031;-75
2024/03/08 07:12:55;;;;;;;43.42;31.63;;;;;;;0.04;100.00;101284.06;5045915;28;20078;-83
2024/03/08 07:15:20;;;;;;;43.42;32.50;;;;;;;0.10;100.00;101288.69;5043222;28;20119;-83
2024/03/08 07:17:46;;;;;;;41.85;31.33;;;;;;;0.18;100.00;101279.63;5045343;28;20047;-80
2024/03/08 07:20:14;;;;;;;45.08;32.80;;;;;;;0.31;100.00;101286.38;5026082;28;20040;-76
2024/03/08 07:22:39;;;;;;;41.63;31.15;;;;;;;0.42;100.00;101279.13;5044558;28;20460;-81
2024/03/08 07:27:42;;;;;;;41.80;30.50;;;;;;;0.67;100.00;101273.47;5045233;28;20038;-83
2024/03/08 07:30:10;;;;;;;41.67;30.92;;;;;;;0.81;100.00;101267.25;5044733;28;20036;-83
2024/03/08 07:32:35;;;;;;;39.67;29.35;;;;;;;0.96;100.00;101267.16;5043873;28;20029;-80
2024/03/08 07:35:01;;;;;;;40.30;29.52;;;;;;;1.10;100.00;101272.16;5045248;28;20028;-74
2024/03/08 07:37:27;;;;;;;38.85;29.13;;;;;;;1.21;100.00;101277.06;5041778;28;20075;-83
2024/03/08 07:39:52;;;;;;;39.13;29.15;;;;;;;1.32;100.00;101269.75;5045809;28;20041;-84
2024/03/08 07:42:18;;;;;;;39.60;29.02;;;;;;;1.48;100.00;101260.09;5042628;28;20022;-80
2024/03/08 07:44:43;;;;;;;38.85;28.88;;;;;;;1.66;100.00;101260.97;5041189;28;20451;-80
2024/03/08 07:47:09;;;;;;;38.63;28.73;;;;;;;1.78;100.00;101264.94;5044311;28;20034;-83
2024/03/08 07:49:37;;;;;;;39.03;28.20;;;;;;;1.91;100.00;101260.41;5044634;28;20041;-81
2024/03/08 07:52:04;;;;;;;37.78;27.92;;;;;;;2.02;100.00;101257.38;5043207;28;20053;-77
2024/03/08 07:54:30;;;;;;;37.45;27.58;;;;;;;2.12;100.00;101248.28;5044681;28;20033;-80
2024/03/08 07:56:55;;;;;;;38.08;28.15;;;;;;;2.22;100.00;101245.25;5041677;28;20500;-74
2024/03/08 07:59:21;;;;;;;37.53;27.35;;;;;;;2.47;100.00;101233.28;5045233;28;20111;-83
2024/03/08 08:01:47;;;;;;;37.45;26.98;;;;;;;2.52;100.00;101230.06;5040942;28;20068;-82
2024/03/08 08:04:14;;;;;;;37.17;27.65;;;;;;;2.70;100.00;101232.53;5043895;28;20423;-72
2024/03/08 08:06:43;;;;;;;37.53;27.08;;;;;;;2.83;100.00;101231.34;5043165;28;20029;-73
2024/03/08 08:09:14;;;;;;;36.38;26.40;;;;;;;2.96;100.00;101224.94;5043163;28;20484;-71
2024/03/08 08:11:43;;;;;;;36.75;26.27;;;;;;;3.12;100.00;101232.56;5042982;28;20384;-76
2024/03/08 08:14:09;;;;;;;37.30;25.98;;;;;;;3.22;100.00;101217.25;5043287;28;20038;-78
2024/03/08 08:16:36;;;;;;;37.05;26.38;;;;;;;3.35;100.00;101211.69;5042440;28;20035;-75
2024/03/08 08:19:07;;;;;;;36.88;26.45;;;;;;;3.53;100.00;101215.88;5040820;28;20049;-77
2024/03/08 08:21:34;;;;;;;36.15;25.33;;;;;;;3.65;100.00;101208.47;5043751;28;20072;-79
2024/03/08 08:24:00;;;;;;;34.70;23.63;;;;;;;3.73;100.00;101201.81;5041736;28;20107;-72
2024/03/08 08:26:26;;;;;;;35.33;25.38;;;;;;;3.92;100.00;101200.78;5044584;28;20151;-71
2024/03/08 08:28:52;;;;;;;34.13;24.75;;;;;;;4.01;100.00;101202.84;5041469;28;20029;-70
2024/03/08 08:31:19;;;;;;;34.38;24.20;;;;;;;4.14;100.00;101188.50;5044061;28;20083;-71
2024/03/08 08:33:44;;;;;;;34.22;24.50;;;;;;;4.34;100.00;101190.09;5042071;28;20021;-71
2024/03/08 08:36:10;;;;;;;33.60;23.48;;;;;;;4.44;100.00;101188.69;5041989;28;20033;-71
2024/03/08 08:38:35;;;;;;;33.42;23.65;;;;;;;4.68;100.00;101191.25;5043209;28;20124;-73
2024/03/08 08:41:02;;;;;;;33.55;22.83;;;;;;;4.85;100.00;101189.22;5041681;28;20021;-74
2024/03/08 08:43:28;;;;;;;33.58;23.63;;;;;;;4.92;100.00;101176.31;5044214;28;20029;-80
2024/03/08 08:45:54;;;;;;;33.38;23.23;;;;;;;5.00;100.00;101185.31;5040816;28;20060;-72
2024/03/08 08:48:20;;;;;;;32.78;22.85;;;;;;;5.18;100.00;101185.00;5039430;28;20554;-71
2024/03/08 08:50:46;;;;;;;33.38;23.05;;;;;;;5.31;100.00;101176.66;5043618;28;20033;-72
2024/03/08 08:53:12;;;;;;;34.33;21.90;;;;;;;5.34;100.00;101174.16;5042222;28;20112;-72
2024/03/08 08:55:40;;;;;;;33.70;23.15;;;;;;;5.57;100.00;101177.47;5042268;28;20121;-73
2024/03/08 08:58:07;;;;;;;33.00;23.23;;;;;;;5.80;100.00;101174.66;5042988;28;20078;-74
2024/03/08 09:00:34;;;;;;;32.95;22.73;;;;;;;5.97;100.00;101166.38;5041649;28;20112;-79
2024/03/08 09:03:00;;;;;;;34.42;22.10;;;;;;;6.08;100.00;101164.97;5044008;28;20032;-74
2024/03/08 09:05:26;;;;;;;32.20;22.52;;;;;;;6.18;100.00;101167.00;5041870;28;20042;-79
2024/03/08 09:07:52;;;;;;;32.03;22.40;;;;;;;6.39;100.00;101163.16;5043808;28;20167;-81
2024/03/08 09:10:18;;;;;;;32.40;22.80;;;;;;;6.53;100.00;101151.28;5041875;28;20491;-77
2024/03/08 09:12:44;;;;;;;32.70;22.25;;;;;;;6.73;100.00;101154.44;5043907;28;20163;-80
2024/03/08 09:15:13;;;;;;;31.90;22.85;;;;;;;6.91;100.00;101148.72;5043093;28;20383;-79
2024/03/08 09:17:41;;;;;;;31.08;22.02;;;;;;;7.07;100.00;101138.59;5043048;28;20050;-79
2024/03/08 09:20:08;;;;;;;32.75;22.40;;;;;;;7.25;100.00;101138.13;5043811;28;20041;-80
2024/03/08 09:22:34;;;;;;;31.42;21.08;;;;;;;7.57;100.00;101143.19;5041443;28;20391;-81
2024/03/08 09:25:00;;;;;;;31.23;22.08;;;;;;;7.79;100.00;101126.09;5041284;28;20041;-81
2024/03/08 09:27:25;;;;;;;33.28;21.55;;;;;;;7.88;100.00;101121.03;5044577;28;20039;-76
2024/03/08 09:29:50;;;;;;;30.77;21.27;;;;;;;7.94;100.00;101115.88;5041142;28;20029;-78
2024/03/08 09:32:16;;;;;;;31.45;21.83;;;;;;;8.12;100.00;101112.72;5043997;28;20120;-79
2024/03/08 09:34:42;;;;;;;31.42;21.27;;;;;;;8.31;100.00;101120.97;5046221;28;20074;-81
2024/03/08 09:37:08;;;;;;;30.88;21.35;;;;;;;8.66;100.00;101108.41;5045738;28;20464;-80
2024/03/08 09:39:34;;;;;;;31.25;21.55;;;;;;;8.93;100.00;101091.28;5046766;28;20045;-73
2024/03/08 09:42:00;;;;;;;30.15;19.25;;;;;;;9.10;100.00;101095.91;5044796;28;20534;-75
2024/03/08 09:44:28;;;;;;;30.85;20.63;;;;;;;9.09;100.00;101087.13;5047779;28;20055;-77
2024/03/08 09:46:55;;;;;;;29.70;20.67;;;;;;;9.43;100.00;101083.16;5040498;28;20053;-80
2024/03/08 09:49:20;;;;;;;31.08;19.88;;;;;;;9.80;100.00;101079.19;5047554;28;20059;-80
2024/03/08 09:51:46;;;;;;;29.75;19.73;;;;;;;9.85;100.00;101054.63;5044630;28;20443;-72
2024/03/08 09:54:12;;;;;;;29.17;18.70;;;;;;;9.84;100.00;101055.47;5045897;28;20090;-72
2024/03/08 09:56:41;;;;;;;28.60;19.48;;;;;;;10.29;100.00;101062.13;5044841;28;20029;-71
2024/03/08 10:01:47;;;;;;;29.70;19.73;;;;;;;10.19;100.00;101054.06;5044729;28;20037;-71
2024/03/08 10:04:13;;;;;;;29.25;19.42;;;;;;;10.09;100.00;101039.88;5044824;28;20029;-73
2024/03/08 10:06:39;;;;;;;28.60;18.30;;;;;;;10.34;100.00;101043.69;5044537;28;20040;-75
2024/03/08 10:09:07;;;;;;;29.42;18.42;;;;;;;10.79;100.00;101025.50;5045190;28;20432;-76
2024/03/08 10:11:33;;;;;;;28.35;18.02;;;;;;;11.12;100.00;101019.50;5046292;28;20033;-72
2024/03/08 10:14:00;;;;;;;29.08;18.67;;;;;;;10.98;100.00;101008.00;5044130;28;20040;-73
2024/03/08 10:16:29;;;;;;;29.17;19.15;;;;;;;10.73;100.00;101009.59;5046937;28;20037;-74
2024/03/08 10:18:57;;;;;;;28.52;18.33;;;;;;;11.09;100.00;101014.19;5039920;28;20049;-79
2024/03/08 10:21:22;;;;;;;27.70;18.58;;;;;;;11.66;100.00;101017.09;5047057;28;20028;-74
2024/03/08 10:23:48;;;;;;;28.40;17.60;;;;;;;11.74;100.00;101010.94;5043876;28;20052;-73
2024/03/08 10:26:15;;;;;;;29.52;18.70;;;;;;;12.01;100.00;101013.66;5044447;28;20476;-71
2024/03/08 10:28:42;;;;;;;28.13;17.88;;;;;;;11.93;100.00;101014.50;5044388;28;20026;-72
2024/03/08 10:31:09;;;;;;;28.80;18.67;;;;;;;12.53;100.00;100991.53;5044805;28;20119;-73
2024/03/08 10:33:35;;;;;;;29.08;18.45;;;;;;;12.65;100.00;100997.72;5043755;28;20026;-74
2024/03/08 10:36:01;;;;;;;28.10;18.20;;;;;;;12.64;100.00;100994.19;5045852;28;20040;-74
2024/03/08 10:38:32;;;;;;;28.20;18.05;;;;;;;12.69;100.00;100996.81;5043370;28;20027;-76
2024/03/08 10:40:58;;;;;;;28.00;18.17;;;;;;;12.50;100.00;100994.19;5045961;28;20035;-75
2024/03/08 10:43:29;;;;;;;28.23;18.02;;;;;;;12.62;100.00;100979.16;5042531;28;20359;-72
2024/03/08 10:46:18;;;;;;;27.77;17.83;;;;;;;12.86;100.00;100981.75;5046522;28;20083;-74
2024/03/08 10:48:49;;;;;;;27.70;17.98;;;;;;;12.58;100.00;100950.88;5045582;28;20029;-72
2024/03/08 10:51:15;;;;;;;27.70;17.23;;;;;;;12.87;100.00;100958.75;5043328;28;20026;-72
2024/03/08 10:53:42;;;;;;;28.17;18.00;;;;;;;12.96;100.00;100973.75;5045674;28;20030;-72
2024/03/08 10:56:09;;;;;;;27.83;17.88;;;;;;;13.31;100.00;100968.31;5044193;28;20128;-71
2024/03/08 10:58:36;;;;;;;29.65;17.50;;;;;;;13.60;100.00;100954.91;5044305;28;20026;-73
2024/03/08 11:01:02;;;;;;;27.98;17.80;;;;;;;13.77;100.00;100962.78;5044106;28;20428;-72
2024/03/08 11:03:40;;;;;;;28.08;17.42;;;;;;;14.04;100.00;100947.50;5043201;28;20112;-72
2024/03/08 11:06:16;;;;;;;27.55;17.05;;;;;;;13.55;100.00;100940.75;5044246;28;20025;-72